sensor_id;sensor_type;location;lat;lon;timestamp;pressure;altitude;pressure_sealevel;temperature;humidity
60240;BME280;46102;39.012;-7.064;2023-05-03T00:01:08;98021.53;;;23.20;38.71
60240;BME280;46102;39.012;-7.064;2023-05-03T00:03:09;98016.81;;;23.10;38.84
60240;BME280;46102;39.012;-7.064;2023-05-03T00:05:10;97998.53;;;23.01;38.86
60240;BME280;46102;39.012;-7.064;2023-05-03T00:07:11;97999.69;;;23.04;38.91
60240;BME280;46102;39.012;-7.064;2023-05-03T00:09:12;97982.13;;;23.03;39.15
60240;BME280;46102;39.012;-7.064;2023-05-03T00:11:13;97971.41;;;22.91;39.09
60240;BME280;46102;39.012;-7.064;2023-05-03T00:13:15;97969.78;;;22.94;39.57
60240;BME280;46102;39.012;-7.064;2023-05-03T00:15:16;97965.41;;;22.93;39.66
60240;BME280;46102;39.012;-7.064;2023-05-03T00:17:16;97960.59;;;22.93;39.30
60240;BME280;46102;39.012;-7.064;2023-05-03T00:19:17;97950.28;;;22.86;39.03
60240;BME280;46102;39.012;-7.064;2023-05-03T00:21:19;97944.69;;;22.86;38.64
60240;BME280;46102;39.012;-7.064;2023-05-03T00:23:20;97949.94;;;22.81;38.78
60240;BME280;46102;39.012;-7.064;2023-05-03T00:25:21;97944.41;;;22.74;38.89
60240;BME280;46102;39.012;-7.064;2023-05-03T00:27:22;97945.63;;;22.73;38.64
60240;BME280;46102;39.012;-7.064;2023-05-03T00:29:23;97951.53;;;22.82;38.55
60240;BME280;46102;39.012;-7.064;2023-05-03T00:31:25;97956.81;;;22.73;38.67
60240;BME280;46102;39.012;-7.064;2023-05-03T00:33:26;97966.00;;;22.70;38.67
60240;BME280;46102;39.012;-7.064;2023-05-03T00:35:26;97970.03;;;22.65;38.68
60240;BME280;46102;39.012;-7.064;2023-05-03T00:37:27;97960.44;;;22.66;38.73
60240;BME280;46102;39.012;-7.064;2023-05-03T00:39:30;97956.50;;;22.60;38.93
60240;BME280;46102;39.012;-7.064;2023-05-03T00:41:31;97956.59;;;22.49;39.61
60240;BME280;46102;39.012;-7.064;2023-05-03T00:43:33;97957.78;;;22.52;39.60
60240;BME280;46102;39.012;-7.064;2023-05-03T00:45:34;97973.78;;;22.48;39.64
60240;BME280;46102;39.012;-7.064;2023-05-03T00:47:36;97977.00;;;22.42;40.01
60240;BME280;46102;39.012;-7.064;2023-05-03T00:49:37;97975.88;;;22.33;40.04
60240;BME280;46102;39.012;-7.064;2023-05-03T00:51:38;97980.28;;;22.30;40.04
60240;BME280;46102;39.012;-7.064;2023-05-03T00:53:42;97972.72;;;22.27;39.91
60240;BME280;46102;39.012;-7.064;2023-05-03T00:55:44;97969.94;;;22.23;40.15
60240;BME280;46102;39.012;-7.064;2023-05-03T00:57:46;97979.91;;;22.28;40.45
60240;BME280;46102;39.012;-7.064;2023-05-03T00:59:47;97971.53;;;22.24;40.41
60240;BME280;46102;39.012;-7.064;2023-05-03T01:01:49;97970.34;;;22.26;41.12
60240;BME280;46102;39.012;-7.064;2023-05-03T01:03:50;97959.16;;;22.26;41.07
60240;BME280;46102;39.012;-7.064;2023-05-03T01:06:00;97959.16;;;22.26;40.95
60240;BME280;46102;39.012;-7.064;2023-05-03T01:08:16;97946.00;;;22.26;41.42
60240;BME280;46102;39.012;-7.064;2023-05-03T01:10:49;97946.00;;;22.26;41.18
60240;BME280;46102;39.012;-7.064;2023-05-03T01:15:32;97942.81;;;22.24;41.68
60240;BME280;46102;39.012;-7.064;2023-05-03T01:17:50;97948.00;;;22.18;41.76
60240;BME280;46102;39.012;-7.064;2023-05-03T01:19:56;97963.16;;;22.17;41.77
60240;BME280;46102;39.012;-7.064;2023-05-03T01:22:16;97969.59;;;22.14;41.78
60240;BME280;46102;39.012;-7.064;2023-05-03T01:24:21;97981.16;;;22.13;41.53
60240;BME280;46102;39.012;-7.064;2023-05-03T01:26:25;97975.22;;;22.07;41.64
60240;BME280;46102;39.012;-7.064;2023-05-03T01:28:26;97995.16;;;22.06;42.08
60240;BME280;46102;39.012;-7.064;2023-05-03T01:30:29;98006.72;;;22.04;41.96
60240;BME280;46102;39.012;-7.064;2023-05-03T01:36:44;98002.00;;;21.94;42.38
60240;BME280;46102;39.012;-7.064;2023-05-03T01:38:46;98006.81;;;21.86;42.42
60240;BME280;46102;39.012;-7.064;2023-05-03T01:40:52;98019.56;;;21.94;42.30
60240;BME280;46102;39.012;-7.064;2023-05-03T01:42:54;98011.25;;;21.80;42.60
60240;BME280;46102;39.012;-7.064;2023-05-03T01:44:56;98007.28;;;21.77;42.73
60240;BME280;46102;39.012;-7.064;2023-05-03T01:46:58;98010.44;;;21.79;42.62
60240;BME280;46102;39.012;-7.064;2023-05-03T01:48:59;98002.88;;;21.76;42.37
60240;BME280;46102;39.012;-7.064;2023-05-03T01:51:00;98003.31;;;21.71;42.40
60240;BME280;46102;39.012;-7.064;2023-05-03T01:53:01;98008.06;;;21.74;42.26
60240;BME280;46102;39.012;-7.064;2023-05-03T01:55:01;97992.94;;;21.72;42.53
60240;BME280;46102;39.012;-7.064;2023-05-03T01:57:02;98000.09;;;21.76;42.26
60240;BME280;46102;39.012;-7.064;2023-05-03T01:59:04;98005.28;;;21.74;42.16
60240;BME280;46102;39.012;-7.064;2023-05-03T02:01:04;98002.53;;;21.71;42.02
60240;BME280;46102;39.012;-7.064;2023-05-03T02:03:06;98003.28;;;21.78;41.93
60240;BME280;46102;39.012;-7.064;2023-05-03T02:05:10;98016.84;;;21.73;42.15
60240;BME280;46102;39.012;-7.064;2023-05-03T02:07:11;98027.22;;;21.76;41.77
60240;BME280;46102;39.012;-7.064;2023-05-03T02:09:12;98018.06;;;21.68;42.13
60240;BME280;46102;39.012;-7.064;2023-05-03T02:11:14;98017.66;;;21.70;41.83
60240;BME280;46102;39.012;-7.064;2023-05-03T02:13:15;98025.66;;;21.60;41.92
60240;BME280;46102;39.012;-7.064;2023-05-03T02:15:16;98029.66;;;21.56;42.31
60240;BME280;46102;39.012;-7.064;2023-05-03T02:17:19;98036.84;;;21.53;42.19
60240;BME280;46102;39.012;-7.064;2023-05-03T02:19:20;98033.28;;;21.53;41.85
60240;BME280;46102;39.012;-7.064;2023-05-03T02:21:21;98040.81;;;21.63;41.75
60240;BME280;46102;39.012;-7.064;2023-05-03T02:23:22;98036.44;;;21.58;41.74
60240;BME280;46102;39.012;-7.064;2023-05-03T02:25:23;98044.03;;;21.58;41.28
60240;BME280;46102;39.012;-7.064;2023-05-03T02:27:24;98053.19;;;21.62;41.58
60240;BME280;46102;39.012;-7.064;2023-05-03T02:29:25;98032.84;;;21.54;41.53
60240;BME280;46102;39.012;-7.064;2023-05-03T02:31:26;98038.06;;;21.45;41.42
60240;BME280;46102;39.012;-7.064;2023-05-03T02:33:30;98054.00;;;21.52;41.37
60240;BME280;46102;39.012;-7.064;2023-05-03T02:35:31;98043.22;;;21.50;41.22
60240;BME280;46102;39.012;-7.064;2023-05-03T02:37:32;98043.66;;;21.41;41.28
60240;BME280;46102;39.012;-7.064;2023-05-03T02:39:35;98042.06;;;21.40;41.11
60240;BME280;46102;39.012;-7.064;2023-05-03T02:41:37;98040.06;;;21.45;41.08
60240;BME280;46102;39.012;-7.064;2023-05-03T02:43:38;98028.91;;;21.48;41.12
60240;BME280;46102;39.012;-7.064;2023-05-03T02:45:39;98024.13;;;21.41;41.17
60240;BME280;46102;39.012;-7.064;2023-05-03T02:47:40;98020.53;;;21.45;41.61
60240;BME280;46102;39.012;-7.064;2023-05-03T02:49:41;98000.22;;;21.44;41.69
60240;BME280;46102;39.012;-7.064;2023-05-03T02:51:41;97992.63;;;21.45;41.49
60240;BME280;46102;39.012;-7.064;2023-05-03T02:53:42;97999.00;;;21.45;42.05
60240;BME280;46102;39.012;-7.064;2023-05-03T02:55:43;98007.78;;;21.47;41.89
60240;BME280;46102;39.012;-7.064;2023-05-03T02:57:44;98023.72;;;21.47;41.95
60240;BME280;46102;39.012;-7.064;2023-05-03T02:59:48;98035.66;;;21.47;41.86
60240;BME280;46102;39.012;-7.064;2023-05-03T03:01:49;98045.25;;;21.46;42.25
60240;BME280;46102;39.012;-7.064;2023-05-03T03:03:50;98033.69;;;21.40;42.00
60240;BME280;46102;39.012;-7.064;2023-05-03T03:05:51;98031.72;;;21.30;42.18
60240;BME280;46102;39.012;-7.064;2023-05-03T03:07:52;98030.13;;;21.26;42.28
60240;BME280;46102;39.012;-7.064;2023-05-03T03:09:54;98031.31;;;21.21;42.69
60240;BME280;46102;39.012;-7.064;2023-05-03T03:11:55;98034.09;;;21.17;42.33
60240;BME280;46102;39.012;-7.064;2023-05-03T03:13:56;98032.53;;;21.13;42.81
60240;BME280;46102;39.012;-7.064;2023-05-03T03:15:59;98027.34;;;21.00;42.60
60240;BME280;46102;39.012;-7.064;2023-05-03T03:18:00;98022.19;;;20.99;42.97
60240;BME280;46102;39.012;-7.064;2023-05-03T03:20:01;98026.16;;;20.98;43.08
60240;BME280;46102;39.012;-7.064;2023-05-03T03:22:05;98017.78;;;20.98;43.11
60240;BME280;46102;39.012;-7.064;2023-05-03T03:24:08;98025.75;;;20.96;43.18
60240;BME280;46102;39.012;-7.064;2023-05-03T03:26:09;98013.41;;;20.97;42.87
60240;BME280;46102;39.012;-7.064;2023-05-03T03:28:10;98016.59;;;21.03;43.00
60240;BME280;46102;39.012;-7.064;2023-05-03T03:30:11;98014.22;;;20.97;43.42
60240;BME280;46102;39.012;-7.064;2023-05-03T03:32:22;98009.41;;;20.98;43.09
60240;BME280;46102;39.012;-7.064;2023-05-03T03:34:23;98019.78;;;21.01;43.34
60240;BME280;46102;39.012;-7.064;2023-05-03T03:36:24;98031.34;;;21.03;43.34
60240;BME280;46102;39.012;-7.064;2023-05-03T03:38:25;98039.69;;;21.10;43.15
60240;BME280;46102;39.012;-7.064;2023-05-03T03:40:32;98038.50;;;20.93;43.76
60240;BME280;46102;39.012;-7.064;2023-05-03T03:42:32;98028.16;;;20.87;43.66
60240;BME280;46102;39.012;-7.064;2023-05-03T03:44:33;98022.19;;;20.81;43.71
60240;BME280;46102;39.012;-7.064;2023-05-03T03:46:34;98018.22;;;20.78;43.84
60240;BME280;46102;39.012;-7.064;2023-05-03T03:48:35;98015.41;;;20.78;43.98
60240;BME280;46102;39.012;-7.064;2023-05-03T03:50:36;98012.22;;;20.80;44.12
60240;BME280;46102;39.012;-7.064;2023-05-03T03:52:45;98009.84;;;20.82;43.99
60240;BME280;46102;39.012;-7.064;2023-05-03T03:54:46;98009.84;;;20.82;44.05
60240;BME280;46102;39.012;-7.064;2023-05-03T03:56:47;98003.06;;;20.83;44.01
60240;BME280;46102;39.012;-7.064;2023-05-03T03:58:48;98010.63;;;20.86;43.86
60240;BME280;46102;39.012;-7.064;2023-05-03T04:00:50;97995.13;;;20.85;44.03
60240;BME280;46102;39.012;-7.064;2023-05-03T04:02:54;98002.28;;;20.86;44.31
60240;BME280;46102;39.012;-7.064;2023-05-03T04:04:55;98004.28;;;20.86;44.33
60240;BME280;46102;39.012;-7.064;2023-05-03T04:06:56;97986.34;;;20.87;44.27
60240;BME280;46102;39.012;-7.064;2023-05-03T04:08:59;97976.00;;;20.84;44.03
60240;BME280;46102;39.012;-7.064;2023-05-03T04:11:01;97977.59;;;20.81;44.71
60240;BME280;46102;39.012;-7.064;2023-05-03T04:13:04;97968.03;;;20.78;44.14
60240;BME280;46102;39.012;-7.064;2023-05-03T04:15:05;97959.28;;;20.73;44.58
60240;BME280;46102;39.012;-7.064;2023-05-03T04:17:07;97960.88;;;20.67;44.56
60240;BME280;46102;39.012;-7.064;2023-05-03T04:19:08;97959.28;;;20.62;44.41
60240;BME280;46102;39.012;-7.064;2023-05-03T04:21:12;97965.22;;;20.53;44.86
60240;BME280;46102;39.012;-7.064;2023-05-03T04:23:13;97968.41;;;20.48;44.76
60240;BME280;46102;39.012;-7.064;2023-05-03T04:25:14;97971.19;;;20.45;44.62
60240;BME280;46102;39.012;-7.064;2023-05-03T04:27:19;97983.13;;;20.42;44.82
60240;BME280;46102;39.012;-7.064;2023-05-03T04:29:20;97981.13;;;20.31;45.20
60240;BME280;46102;39.012;-7.064;2023-05-03T04:31:23;97982.72;;;20.29;45.11
60240;BME280;46102;39.012;-7.064;2023-05-03T04:33:27;97992.63;;;20.26;45.23
60240;BME280;46102;39.012;-7.064;2023-05-03T04:35:33;97989.47;;;20.21;45.24
60240;BME280;46102;39.012;-7.064;2023-05-03T04:37:41;97988.28;;;20.18;45.27
60240;BME280;46102;39.012;-7.064;2023-05-03T04:39:43;98003.78;;;20.15;45.41
60240;BME280;46102;39.012;-7.064;2023-05-03T04:41:45;98005.34;;;20.09;45.38
60240;BME280;46102;39.012;-7.064;2023-05-03T04:43:46;98006.91;;;20.03;45.50
60240;BME280;46102;39.012;-7.064;2023-05-03T04:45:47;98008.50;;;20.01;45.29
60240;BME280;46102;39.012;-7.064;2023-05-03T04:47:53;98005.34;;;20.02;45.26
60240;BME280;46102;39.012;-7.064;2023-05-03T04:49:54;98006.16;;;20.06;45.07
60240;BME280;46102;39.012;-7.064;2023-05-03T04:51:55;98008.13;;;20.09;44.97
60240;BME280;46102;39.012;-7.064;2023-05-03T04:53:57;98004.97;;;20.11;45.03
60240;BME280;46102;39.012;-7.064;2023-05-03T04:55:58;98005.75;;;20.11;44.88
60240;BME280;46102;39.012;-7.064;2023-05-03T04:58:00;98004.56;;;20.12;45.09
60240;BME280;46102;39.012;-7.064;2023-05-03T05:00:01;98000.19;;;20.15;44.86
60240;BME280;46102;39.012;-7.064;2023-05-03T05:02:03;98010.94;;;20.16;44.84
60240;BME280;46102;39.012;-7.064;2023-05-03T05:04:04;98016.50;;;20.16;45.02
60240;BME280;46102;39.012;-7.064;2023-05-03T05:06:13;98020.47;;;20.12;45.23
60240;BME280;46102;39.012;-7.064;2023-05-03T05:08:15;98018.06;;;20.07;45.31
60240;BME280;46102;39.012;-7.064;2023-05-03T05:10:22;98022.81;;;20.03;45.36
60240;BME280;46102;39.012;-7.064;2023-05-03T05:12:24;98040.31;;;20.00;45.35
60240;BME280;46102;39.012;-7.064;2023-05-03T05:14:25;98032.34;;;19.98;45.38
60240;BME280;46102;39.012;-7.064;2023-05-03T05:16:27;98031.16;;;19.99;45.36
60240;BME280;46102;39.012;-7.064;2023-05-03T05:18:30;98018.44;;;20.02;45.45
60240;BME280;46102;39.012;-7.064;2023-05-03T05:20:33;98014.88;;;20.05;45.62
60240;BME280;46102;39.012;-7.064;2023-05-03T05:22:36;98024.81;;;20.02;45.54
60240;BME280;46102;39.012;-7.064;2023-05-03T05:24:36;98035.97;;;20.02;45.74
60240;BME280;46102;39.012;-7.064;2023-05-03T05:26:37;98044.31;;;20.02;45.81
60240;BME280;46102;39.012;-7.064;2023-05-03T05:28:38;98060.63;;;20.07;45.88
60240;BME280;46102;39.012;-7.064;2023-05-03T05:30:39;98065.81;;;20.09;45.58
60240;BME280;46102;39.012;-7.064;2023-05-03T05:32:40;98069.78;;;20.11;45.79
60240;BME280;46102;39.012;-7.064;2023-05-03T05:34:44;98067.00;;;20.11;45.69
60240;BME280;46102;39.012;-7.064;2023-05-03T05:36:51;98052.28;;;20.11;45.77
60240;BME280;46102;39.012;-7.064;2023-05-03T05:38:53;98036.38;;;20.11;45.73
60240;BME280;46102;39.012;-7.064;2023-05-03T05:40:54;98029.19;;;20.10;45.79
60240;BME280;46102;39.012;-7.064;2023-05-03T05:42:56;98027.63;;;20.09;45.92
60240;BME280;46102;39.012;-7.064;2023-05-03T05:44:58;98030.00;;;20.07;46.29
60240;BME280;46102;39.012;-7.064;2023-05-03T05:47:00;98024.41;;;20.00;46.69
60240;BME280;46102;39.012;-7.064;2023-05-03T05:49:01;98010.88;;;19.91;46.79
60240;BME280;46102;39.012;-7.064;2023-05-03T05:51:02;98001.28;;;19.82;47.21
60240;BME280;46102;39.012;-7.064;2023-05-03T05:53:03;97988.56;;;19.77;47.17
60240;BME280;46102;39.012;-7.064;2023-05-03T05:55:09;97988.16;;;19.75;47.33
60240;BME280;46102;39.012;-7.064;2023-05-03T05:57:14;97990.94;;;19.75;47.65
60240;BME280;46102;39.012;-7.064;2023-05-03T05:59:15;98001.25;;;19.71;48.25
60240;BME280;46102;39.012;-7.064;2023-05-03T06:01:16;98009.50;;;19.60;49.08
60240;BME280;46102;39.012;-7.064;2023-05-03T06:03:17;98021.03;;;19.55;49.45
60240;BME280;46102;39.012;-7.064;2023-05-03T06:05:20;98023.34;;;19.46;49.80
60240;BME280;46102;39.012;-7.064;2023-05-03T06:07:21;98021.34;;;19.39;49.98
60240;BME280;46102;39.012;-7.064;2023-05-03T06:09:24;98033.63;;;19.38;50.15
60240;BME280;46102;39.012;-7.064;2023-05-03T06:11:27;98047.19;;;19.43;50.11
60240;BME280;46102;39.012;-7.064;2023-05-03T06:13:29;98054.38;;;19.48;49.92
60240;BME280;46102;39.012;-7.064;2023-05-03T06:15:31;98048.00;;;19.51;50.00
60240;BME280;46102;39.012;-7.064;2023-05-03T06:17:32;98052.81;;;19.58;49.85
60240;BME280;46102;39.012;-7.064;2023-05-03T06:19:33;98065.97;;;19.64;49.64
60240;BME280;46102;39.012;-7.064;2023-05-03T06:21:34;98069.63;;;19.75;49.70
60240;BME280;46102;39.012;-7.064;2023-05-03T06:23:35;98066.50;;;19.84;49.16
60240;BME280;46102;39.012;-7.064;2023-05-03T06:25:38;98061.75;;;19.88;49.10
60240;BME280;46102;39.012;-7.064;2023-05-03T06:27:39;98065.72;;;19.94;48.74
60240;BME280;46102;39.012;-7.064;2023-05-03T06:29:40;98061.00;;;20.02;48.80
60240;BME280;46102;39.012;-7.064;2023-05-03T06:31:43;98064.59;;;20.10;48.49
60240;BME280;46102;39.012;-7.064;2023-05-03T06:33:45;98060.25;;;20.16;48.06
60240;BME280;46102;39.012;-7.064;2023-05-03T06:35:47;98058.69;;;20.22;48.12
60240;BME280;46102;39.012;-7.064;2023-05-03T06:37:49;98053.53;;;20.31;47.99
60240;BME280;46102;39.012;-7.064;2023-05-03T06:39:51;98049.97;;;20.34;47.72
60240;BME280;46102;39.012;-7.064;2023-05-03T06:41:53;98039.25;;;20.40;47.35
60240;BME280;46102;39.012;-7.064;2023-05-03T06:43:54;98047.19;;;20.45;47.49
60240;BME280;46102;39.012;-7.064;2023-05-03T06:45:57;98063.97;;;20.67;47.41
60240;BME280;46102;39.012;-7.064;2023-05-03T06:47:58;98071.16;;;20.89;47.04
60240;BME280;46102;39.012;-7.064;2023-05-03T06:49:58;98059.59;;;21.09;46.52
60240;BME280;46102;39.012;-7.064;2023-05-03T06:51:59;98067.59;;;21.21;45.80
60240;BME280;46102;39.012;-7.064;2023-05-03T06:54:01;98068.75;;;21.27;45.56
60240;BME280;46102;39.012;-7.064;2023-05-03T06:56:06;98076.72;;;21.32;45.45
60240;BME280;46102;39.012;-7.064;2023-05-03T06:58:07;98076.31;;;21.16;45.88
60240;BME280;46102;39.012;-7.064;2023-05-03T07:00:11;98073.56;;;21.19;46.07
60240;BME280;46102;39.012;-7.064;2023-05-03T07:02:12;98079.13;;;21.16;46.33
60240;BME280;46102;39.012;-7.064;2023-05-03T07:04:13;98062.00;;;21.17;46.72
60240;BME280;46102;39.012;-7.064;2023-05-03T07:06:13;98062.00;;;21.21;46.77
60240;BME280;46102;39.012;-7.064;2023-05-03T07:08:14;98060.00;;;21.14;46.89
60240;BME280;46102;39.012;-7.064;2023-05-03T07:10:15;98061.59;;;21.15;46.68
60240;BME280;46102;39.012;-7.064;2023-05-03T07:12:16;98059.22;;;21.21;46.87
60240;BME280;46102;39.012;-7.064;2023-05-03T07:14:17;98066.78;;;21.24;46.26
60240;BME280;46102;39.012;-7.064;2023-05-03T07:16:18;98059.97;;;21.39;45.78
60240;BME280;46102;39.012;-7.064;2023-05-03T07:18:19;98069.97;;;21.44;45.85
60240;BME280;46102;39.012;-7.064;2023-05-03T07:20:22;98085.09;;;21.47;45.88
60240;BME280;46102;39.012;-7.064;2023-05-03T07:22:22;98083.88;;;21.58;45.77
60240;BME280;46102;39.012;-7.064;2023-05-03T07:24:27;98080.66;;;21.78;45.21
60240;BME280;46102;39.012;-7.064;2023-05-03T07:26:28;98086.13;;;22.07;44.29
60240;BME280;46102;39.012;-7.064;2023-05-03T07:28:28;98083.59;;;22.41;43.50
60240;BME280;46102;39.012;-7.064;2023-05-03T07:30:29;98095.03;;;22.64;42.72
60240;BME280;46102;39.012;-7.064;2023-05-03T07:32:31;98085.28;;;22.87;42.24
60240;BME280;46102;39.012;-7.064;2023-05-03T07:34:32;98085.28;;;22.87;42.00
60240;BME280;46102;39.012;-7.064;2023-05-03T07:36:33;98093.66;;;22.87;42.05
60240;BME280;46102;39.012;-7.064;2023-05-03T07:38:33;98104.47;;;22.85;42.28
60240;BME280;46102;39.012;-7.064;2023-05-03T07:40:34;98087.63;;;22.96;42.04
60240;BME280;46102;39.012;-7.064;2023-05-03T07:42:35;98082.81;;;23.00;41.62
60240;BME280;46102;39.012;-7.064;2023-05-03T07:44:36;98093.88;;;23.14;41.58
60240;BME280;46102;39.012;-7.064;2023-05-03T07:46:37;98092.09;;;23.38;40.99
60240;BME280;46102;39.012;-7.064;2023-05-03T07:48:37;98095.22;;;23.44;40.68
60240;BME280;46102;39.012;-7.064;2023-05-03T07:50:41;98093.09;;;23.55;40.50
60240;BME280;46102;39.012;-7.064;2023-05-03T07:52:42;98095.19;;;23.47;40.25
60240;BME280;46102;39.012;-7.064;2023-05-03T07:54:43;98082.59;;;23.28;40.80
60240;BME280;46102;39.012;-7.064;2023-05-03T07:56:45;98086.72;;;23.55;40.39
60240;BME280;46102;39.012;-7.064;2023-05-03T07:58:46;98079.06;;;23.62;39.98
60240;BME280;46102;39.012;-7.064;2023-05-03T08:00:46;98076.66;;;23.64;40.60
60240;BME280;46102;39.012;-7.064;2023-05-03T08:02:47;98087.72;;;23.75;40.49
60240;BME280;46102;39.012;-7.064;2023-05-03T08:04:48;98090.13;;;24.11;40.17
60240;BME280;46102;39.012;-7.064;2023-05-03T08:06:49;98081.25;;;24.47;39.21
60240;BME280;46102;39.012;-7.064;2023-05-03T08:08:50;98088.00;;;24.53;39.14
60240;BME280;46102;39.012;-7.064;2023-05-03T08:10:51;98082.03;;;24.51;39.01
60240;BME280;46102;39.012;-7.064;2023-05-03T08:12:52;98089.28;;;24.45;39.32
60240;BME280;46102;39.012;-7.064;2023-05-03T08:14:54;98086.47;;;24.48;38.93
60240;BME280;46102;39.012;-7.064;2023-05-03T08:16:55;98082.00;;;24.55;38.70
60240;BME280;46102;39.012;-7.064;2023-05-03T08:18:56;98079.75;;;24.69;38.13
60240;BME280;46102;39.012;-7.064;2023-05-03T08:20:57;98083.53;;;24.86;38.02
60240;BME280;46102;39.012;-7.064;2023-05-03T08:22:58;98085.91;;;25.11;37.78
60240;BME280;46102;39.012;-7.064;2023-05-03T08:24:58;98082.41;;;25.31;37.36
60240;BME280;46102;39.012;-7.064;2023-05-03T08:27:00;98075.44;;;25.39;37.37
60240;BME280;46102;39.012;-7.064;2023-05-03T08:29:01;98068.84;;;25.49;37.05
60240;BME280;46102;39.012;-7.064;2023-05-03T08:31:03;98073.00;;;25.65;36.03
60240;BME280;46102;39.012;-7.064;2023-05-03T08:33:04;98074.78;;;25.75;36.06
60240;BME280;46102;39.012;-7.064;2023-05-03T08:35:05;98077.09;;;25.80;36.27
60240;BME280;46102;39.012;-7.064;2023-05-03T08:37:06;98072.53;;;25.90;36.05
60240;BME280;46102;39.012;-7.064;2023-05-03T08:39:07;98084.91;;;26.12;35.85
60240;BME280;46102;39.012;-7.064;2023-05-03T08:41:27;98075.03;;;26.24;35.32
60240;BME280;46102;39.012;-7.064;2023-05-03T08:43:28;98079.97;;;26.56;34.44
60240;BME280;46102;39.012;-7.064;2023-05-03T08:45:32;98078.53;;;26.48;33.50
60240;BME280;46102;39.012;-7.064;2023-05-03T08:47:32;98073.94;;;26.54;33.84
60240;BME280;46102;39.012;-7.064;2023-05-03T08:49:36;98062.06;;;26.67;31.82
60240;BME280;46102;39.012;-7.064;2023-05-03T08:51:39;98065.25;;;26.69;32.66
60240;BME280;46102;39.012;-7.064;2023-05-03T08:53:42;98068.84;;;26.69;32.99
60240;BME280;46102;39.012;-7.064;2023-05-03T08:55:44;98070.34;;;26.54;32.63
60240;BME280;46102;39.012;-7.064;2023-05-03T08:57:44;98064.88;;;26.67;30.04
60240;BME280;46102;39.012;-7.064;2023-05-03T09:01:48;98072.91;;;26.85;29.87
60240;BME280;46102;39.012;-7.064;2023-05-03T09:03:49;98069.72;;;26.99;30.11
60240;BME280;46102;39.012;-7.064;2023-05-03T09:05:51;98067.44;;;26.94;29.00
60240;BME280;46102;39.012;-7.064;2023-05-03T09:10:21;98076.72;;;26.58;27.75
60240;BME280;46102;39.012;-7.064;2023-05-03T09:12:41;98071.38;;;26.64;29.09
60240;BME280;46102;39.012;-7.064;2023-05-03T09:14:45;98086.25;;;26.64;29.03
60240;BME280;46102;39.012;-7.064;2023-05-03T09:16:46;98083.44;;;26.81;29.45
60240;BME280;46102;39.012;-7.064;2023-05-03T09:18:57;98084.22;;;26.97;29.25
60240;BME280;46102;39.012;-7.064;2023-05-03T09:20:58;98083.56;;;26.93;28.49
60240;BME280;46102;39.012;-7.064;2023-05-03T09:22:59;98097.22;;;26.75;29.47
60240;BME280;46102;39.012;-7.064;2023-05-03T09:25:00;98094.94;;;26.70;30.36
60240;BME280;46102;39.012;-7.064;2023-05-03T09:27:16;98093.22;;;26.92;29.76
60240;BME280;46102;39.012;-7.064;2023-05-03T09:29:30;98089.88;;;27.14;29.37
60240;BME280;46102;39.012;-7.064;2023-05-03T09:31:32;98081.94;;;26.92;28.64
60240;BME280;46102;39.012;-7.064;2023-05-03T09:33:33;98086.09;;;26.88;29.34
60240;BME280;46102;39.012;-7.064;2023-05-03T09:35:34;98087.16;;;26.94;28.81
60240;BME280;46102;39.012;-7.064;2023-05-03T09:37:35;98086.53;;;27.03;28.90
60240;BME280;46102;39.012;-7.064;2023-05-03T09:39:38;98077.75;;;27.50;28.32
60240;BME280;46102;39.012;-7.064;2023-05-03T09:41:38;98075.59;;;27.99;27.69
60240;BME280;46102;39.012;-7.064;2023-05-03T09:43:50;98080.91;;;28.52;27.68
60240;BME280;46102;39.012;-7.064;2023-05-03T09:45:51;98080.56;;;28.37;27.51
60240;BME280;46102;39.012;-7.064;2023-05-03T09:47:53;98071.28;;;28.24;27.81
60240;BME280;46102;39.012;-7.064;2023-05-03T09:49:55;98078.66;;;28.73;27.42
60240;BME280;46102;39.012;-7.064;2023-05-03T09:51:57;98080.72;;;28.72;27.37
60240;BME280;46102;39.012;-7.064;2023-05-03T09:53:58;98081.63;;;28.69;27.38
60240;BME280;46102;39.012;-7.064;2023-05-03T09:56:01;98070.66;;;28.97;27.14
60240;BME280;46102;39.012;-7.064;2023-05-03T09:58:04;98082.19;;;29.15;26.74
60240;BME280;46102;39.012;-7.064;2023-05-03T10:00:08;98078.72;;;29.46;26.26
60240;BME280;46102;39.012;-7.064;2023-05-03T10:02:12;98083.97;;;29.22;26.69
60240;BME280;46102;39.012;-7.064;2023-05-03T10:04:16;98086.03;;;29.09;26.16
60240;BME280;46102;39.012;-7.064;2023-05-03T10:06:35;98077.09;;;28.72;26.21
60240;BME280;46102;39.012;-7.064;2023-05-03T10:10:43;98080.81;;;28.81;26.89
60240;BME280;46102;39.012;-7.064;2023-05-03T10:12:46;98078.94;;;28.36;26.98
60240;BME280;46102;39.012;-7.064;2023-05-03T10:14:47;98079.53;;;28.44;26.51
60240;BME280;46102;39.012;-7.064;2023-05-03T10:16:57;98081.72;;;28.65;26.33
60240;BME280;46102;39.012;-7.064;2023-05-03T10:19:08;98076.41;;;29.06;25.86
60240;BME280;46102;39.012;-7.064;2023-05-03T10:21:13;98079.00;;;29.61;25.72
60240;BME280;46102;39.012;-7.064;2023-05-03T10:23:16;98069.69;;;29.86;25.09
60240;BME280;46102;39.012;-7.064;2023-05-03T10:25:17;98072.59;;;29.95;24.18
60240;BME280;46102;39.012;-7.064;2023-05-03T10:27:18;98057.78;;;29.56;24.78
60240;BME280;46102;39.012;-7.064;2023-05-03T10:31:47;98072.38;;;29.55;24.97
60240;BME280;46102;39.012;-7.064;2023-05-03T10:33:48;98066.06;;;29.51;24.32
60240;BME280;46102;39.012;-7.064;2023-05-03T10:35:52;98071.91;;;29.69;24.59
60240;BME280;46102;39.012;-7.064;2023-05-03T10:37:54;98065.28;;;30.07;23.47
60240;BME280;46102;39.012;-7.064;2023-05-03T10:40:17;98070.03;;;29.88;24.49
60240;BME280;46102;39.012;-7.064;2023-05-03T10:42:21;98074.72;;;29.21;23.17
60240;BME280;46102;39.012;-7.064;2023-05-03T10:44:25;98075.06;;;29.23;22.17
60240;BME280;46102;39.012;-7.064;2023-05-03T10:46:31;98083.34;;;29.53;22.70
60240;BME280;46102;39.012;-7.064;2023-05-03T10:48:33;98063.44;;;29.91;20.75
60240;BME280;46102;39.012;-7.064;2023-05-03T10:50:34;98058.75;;;30.19;20.14
60240;BME280;46102;39.012;-7.064;2023-05-03T10:54:35;98060.44;;;30.61;18.99
60240;BME280;46102;39.012;-7.064;2023-05-03T10:56:50;98065.91;;;30.96;18.46
60240;BME280;46102;39.012;-7.064;2023-05-03T10:58:51;98069.28;;;30.72;19.36